SBCTSBMG

Guest
Details From SBCT - Afonso Pena
To SBMG - Regional De Maringa Silvio Name Junior
Flight Number -
Tags Generated
Created
Modified
Stats Distance 198 nm / 367 km
Max Altitude 0 ft / 0 m
Waypoints 2
Social Downloads 5
Likes 0
Share VATSIM

Download

Looking for another format? Having issues loading an existing format? Contact us
Advertisement - Login to hide

Notes

Generated

Route

SBCT SBMG

ID Type Via Altitude Latitude Longitude Leg Dist Tot Dist Heading (true) Name
O SBCT APT - 0 ft / 0 m -25.52836˚ -49.18010˚ - 0 nm - -
O SBMG APT - 0 ft / 0 m -23.47808˚ -52.02647˚ 198 nm 198 nm 308° / 309° -

Altitude Profile

Advertisement - Login to hide

Weather


0- 5 10 15 20 25 30 35+ Temperature / ° C

Clouds and Precipitation
Forecast for 2017-12-15 06:00 UTC. Updated an hour ago

Ground ~20,000 ft ~40,000 ft Winds

SBCT

Details ICAO SBCT (CWB)
Name Afonso Pena
Region Brazil
Timezone America/Sao_Paulo (UTC-2.0)
Stats Elevation 2,988 ft / 911 m (AMSL)
Location -25.528885° -49.173062°
Runways 2
Magnetic Variation 19.613° W

METAR

SBCT 150400Z 04003KT 9999 FEW005 20/19 Q1017

Decode

TAF

TAF SBCT 142100Z 1500/1524 28006KT 9999 SHRA SCT020 FEW035TCU TN19/1506Z TX28/1517Z PROB30 1500/1504 06004KT SCT010 PROB30 1504/1508 36004KT PROB30 1511/1519 5000 TSRA FEW030CB BECMG 1521/1524 09004KT RMK PDN

Decode

Departure Runways

ID Width Length Bearing (true) Bearing (mag) Surface Threshold Offset Overrun Length
11 148 ft / 45 m 5,909 ft / 1,801 m 91.79° 111.40° Asphalt 0 ft / 0 m 0 ft / 0 m
15 148 ft / 45 m 7,290 ft / 2,222 m 134.76° 154.37° Asphalt 0 ft / 0 m 190 ft / 58 m
29 148 ft / 45 m 5,909 ft / 1,801 m 271.78° 291.39° Asphalt 0 ft / 0 m 0 ft / 0 m
33 148 ft / 45 m 7,290 ft / 2,222 m 314.75° 334.36° Asphalt 0 ft / 0 m 185 ft / 56 m

SBMG

Details ICAO SBMG (MGF)
Name REGIONAL DE MARINGA SILVIO NAME JUNIOR
Region Brazil
Timezone America/Sao_Paulo (UTC-2.0)
Stats Elevation 1,788 ft / 545 m (AMSL)
Location -23.476112° -52.016404°
Runways 1
Magnetic Variation 18.516° W

METAR

SBMG 150300Z 07003KT CAVOK 26/20 Q1013

Decode

TAF

Not found

Destination Runways

ID Width Length Bearing (true) Bearing (mag) Surface Threshold Offset Overrun Length
09 147 ft / 45 m 6,893 ft / 2,101 m 77.96° 96.48° Asphalt 0 ft / 0 m 195 ft / 59 m
27 147 ft / 45 m 6,893 ft / 2,101 m 257.95° 276.47° Asphalt 0 ft / 0 m 195 ft / 59 m

Popular Alternatives